sensor_id;sensor_type;location;lat;lon;timestamp;pressure;altitude;pressure_sealevel;temperature;humidity
37648;BME280;23490;53.656;10.076;2023-02-19T00:02:24;99715.41;;;-145.95;100.00
37648;BME280;23490;53.656;10.076;2023-02-19T00:04:49;99738.13;;;-145.95;100.00
37648;BME280;23490;53.656;10.076;2023-02-19T00:07:14;99698.88;;;-145.95;100.00
37648;BME280;23490;53.656;10.076;2023-02-19T00:09:40;99738.13;;;-145.95;100.00
37648;BME280;23490;53.656;10.076;2023-02-19T00:12:05;99703.00;;;-145.95;100.00
37648;BME280;23490;53.656;10.076;2023-02-19T00:14:30;99754.66;;;-145.95;100.00
37648;BME280;23490;53.656;10.076;2023-02-19T00:16:56;99715.41;;;-145.95;100.00
37648;BME280;23490;53.656;10.076;2023-02-19T00:19:21;99738.13;;;-145.95;100.00
37648;BME280;23490;53.656;10.076;2023-02-19T00:21:49;99698.88;;;-145.95;100.00
37648;BME280;23490;53.656;10.076;2023-02-19T00:24:15;99703.00;;;-145.95;100.00
37648;BME280;23490;53.656;10.076;2023-02-19T00:26:42;99725.75;;;-145.95;100.00
37648;BME280;23490;53.656;10.076;2023-02-19T00:29:13;99705.09;;;-145.95;100.00
37648;BME280;23490;53.656;10.076;2023-02-19T00:31:38;99731.94;;;-145.95;100.00
37648;BME280;23490;53.656;10.076;2023-02-19T00:34:05;99731.94;;;-145.95;100.00
37648;BME280;23490;53.656;10.076;2023-02-19T00:36:31;99698.88;;;-145.95;100.00
37648;BME280;23490;53.656;10.076;2023-02-19T00:38:58;99719.53;;;-145.95;100.00
37648;BME280;23490;53.656;10.076;2023-02-19T00:41:23;99715.41;;;-145.95;100.00
37648;BME280;23490;53.656;10.076;2023-02-19T00:43:50;99723.66;;;-145.95;100.00
37648;BME280;23490;53.656;10.076;2023-02-19T00:46:17;99731.94;;;-145.95;100.00
37648;BME280;23490;53.656;10.076;2023-02-19T00:48:43;99715.41;;;-145.95;100.00
37648;BME280;23490;53.656;10.076;2023-02-19T00:51:09;99698.88;;;-145.95;100.00
37648;BME280;23490;53.656;10.076;2023-02-19T00:53:35;99748.44;;;-145.95;100.00
37648;BME280;23490;53.656;10.076;2023-02-19T00:56:00;99725.75;;;-145.95;100.00
37648;BME280;23490;53.656;10.076;2023-02-19T00:58:25;99727.81;;;-145.95;100.00
37648;BME280;23490;53.656;10.076;2023-02-19T01:00:51;99748.44;;;-145.95;100.00
37648;BME280;23490;53.656;10.076;2023-02-19T01:03:16;99734.00;;;-145.95;100.00
37648;BME280;23490;53.656;10.076;2023-02-19T01:05:42;99717.47;;;-145.95;100.00
37648;BME280;23490;53.656;10.076;2023-02-19T01:08:07;99736.06;;;-145.95;100.00
37648;BME280;23490;53.656;10.076;2023-02-19T01:10:32;99717.47;;;-145.95;100.00
37648;BME280;23490;53.656;10.076;2023-02-19T01:12:57;99703.00;;;-145.95;100.00
37648;BME280;23490;53.656;10.076;2023-02-19T01:15:23;99717.47;;;-145.95;100.00
37648;BME280;23490;53.656;10.076;2023-02-19T01:17:48;99719.53;;;-145.95;100.00
37648;BME280;23490;53.656;10.076;2023-02-19T01:20:13;99717.47;;;-145.95;100.00
37648;BME280;23490;53.656;10.076;2023-02-19T01:22:39;99727.81;;;-145.95;100.00
37648;BME280;23490;53.656;10.076;2023-02-19T01:25:04;99727.81;;;-145.95;100.00
37648;BME280;23490;53.656;10.076;2023-02-19T01:27:30;99727.81;;;-145.95;100.00
37648;BME280;23490;53.656;10.076;2023-02-19T01:29:55;99674.09;;;-145.95;100.00
37648;BME280;23490;53.656;10.076;2023-02-19T01:32:20;99680.31;;;-145.95;100.00
37648;BME280;23490;53.656;10.076;2023-02-19T01:34:46;99719.53;;;-145.95;100.00
37648;BME280;23490;53.656;10.076;2023-02-19T01:37:11;99764.97;;;-145.95;100.00
37648;BME280;23490;53.656;10.076;2023-02-19T01:39:37;99736.06;;;-145.95;100.00
37648;BME280;23490;53.656;10.076;2023-02-19T01:42:05;99727.81;;;-145.95;100.00
37648;BME280;23490;53.656;10.076;2023-02-19T01:47:00;99725.75;;;-145.95;100.00
37648;BME280;23490;53.656;10.076;2023-02-19T01:49:29;99723.66;;;-145.95;100.00
37648;BME280;23490;53.656;10.076;2023-02-19T01:51:59;99750.53;;;-145.95;100.00
37648;BME280;23490;53.656;10.076;2023-02-19T01:54:28;99715.41;;;-145.95;100.00
37648;BME280;23490;53.656;10.076;2023-02-19T01:56:56;99725.75;;;-145.95;100.00
37648;BME280;23490;53.656;10.076;2023-02-19T01:59:21;99756.72;;;-145.95;100.00
37648;BME280;23490;53.656;10.076;2023-02-19T02:01:47;99769.13;;;-145.95;100.00
37648;BME280;23490;53.656;10.076;2023-02-19T02:04:14;99773.25;;;-145.95;100.00
37648;BME280;23490;53.656;10.076;2023-02-19T02:06:45;99748.44;;;-145.95;100.00
37648;BME280;23490;53.656;10.076;2023-02-19T02:09:12;99721.59;;;-145.95;100.00
37648;BME280;23490;53.656;10.076;2023-02-19T02:11:57;99703.00;;;-145.95;100.00
37648;BME280;23490;53.656;10.076;2023-02-19T02:14:24;99785.63;;;-145.95;100.00
37648;BME280;23490;53.656;10.076;2023-02-19T02:16:56;99764.97;;;-145.95;100.00
37648;BME280;23490;53.656;10.076;2023-02-19T02:20:15;99752.59;;;-145.95;100.00
37648;BME280;23490;53.656;10.076;2023-02-19T02:22:56;99781.50;;;-145.95;100.00
37648;BME280;23490;53.656;10.076;2023-02-19T02:36:07;99748.44;;;-145.95;100.00
37648;BME280;23490;53.656;10.076;2023-02-19T02:38:37;99707.16;;;-145.95;100.00
37648;BME280;23490;53.656;10.076;2023-02-19T02:41:03;99748.44;;;-145.95;100.00
37648;BME280;23490;53.656;10.076;2023-02-19T02:43:30;99773.25;;;-145.95;100.00
37648;BME280;23490;53.656;10.076;2023-02-19T02:45:55;99769.13;;;-145.95;100.00
37648;BME280;23490;53.656;10.076;2023-02-19T02:48:43;99736.06;;;-145.95;100.00
37648;BME280;23490;53.656;10.076;2023-02-19T02:51:24;99789.75;;;-145.95;100.00
37648;BME280;23490;53.656;10.076;2023-02-19T02:54:06;99769.13;;;-145.95;100.00
37648;BME280;23490;53.656;10.076;2023-02-19T02:56:51;99748.44;;;-145.95;100.00
37648;BME280;23490;53.656;10.076;2023-02-19T02:59:21;99800.09;;;-145.95;100.00
37648;BME280;23490;53.656;10.076;2023-02-19T03:10:11;99756.72;;;-145.95;100.00
37648;BME280;23490;53.656;10.076;2023-02-19T03:12:39;99769.13;;;-145.95;100.00
37648;BME280;23490;53.656;10.076;2023-02-19T03:15:27;99802.16;;;-145.95;100.00
37648;BME280;23490;53.656;10.076;2023-02-19T03:18:15;99756.72;;;-145.95;100.00
37648;BME280;23490;53.656;10.076;2023-02-19T03:21:02;99773.25;;;-145.95;100.00
37648;BME280;23490;53.656;10.076;2023-02-19T03:23:31;99781.50;;;-145.95;100.00
37648;BME280;23490;53.656;10.076;2023-02-19T03:26:24;99777.38;;;-145.95;100.00
37648;BME280;23490;53.656;10.076;2023-02-19T03:28:51;99750.53;;;-145.95;100.00
37648;BME280;23490;53.656;10.076;2023-02-19T03:31:37;99793.91;;;-145.95;100.00
37648;BME280;23490;53.656;10.076;2023-02-19T03:34:07;99777.38;;;-145.95;100.00
37648;BME280;23490;53.656;10.076;2023-02-19T03:36:38;99773.25;;;-145.95;100.00
37648;BME280;23490;53.656;10.076;2023-02-19T03:39:07;99740.19;;;-145.95;100.00
37648;BME280;23490;53.656;10.076;2023-02-19T03:44:40;99781.50;;;-145.95;100.00
37648;BME280;23490;53.656;10.076;2023-02-19T03:47:24;99789.75;;;-145.95;100.00
37648;BME280;23490;53.656;10.076;2023-02-19T03:50:51;99736.06;;;-145.95;100.00
37648;BME280;23490;53.656;10.076;2023-02-19T03:58:14;99785.63;;;-145.95;100.00
37648;BME280;23490;53.656;10.076;2023-02-19T04:00:43;99781.50;;;-145.95;100.00
37648;BME280;23490;53.656;10.076;2023-02-19T04:03:36;99734.00;;;-145.95;100.00
37648;BME280;23490;53.656;10.076;2023-02-19T04:06:08;99781.50;;;-145.95;100.00
37648;BME280;23490;53.656;10.076;2023-02-19T04:08:37;99779.44;;;-145.95;100.00
37648;BME280;23490;53.656;10.076;2023-02-19T04:11:04;99802.16;;;-145.95;100.00
37648;BME280;23490;53.656;10.076;2023-02-19T04:16:27;99773.25;;;-145.95;100.00
37648;BME280;23490;53.656;10.076;2023-02-19T04:18:57;99777.38;;;-145.95;100.00
37648;BME280;23490;53.656;10.076;2023-02-19T04:21:23;99793.91;;;-145.95;100.00
37648;BME280;23490;53.656;10.076;2023-02-19T04:23:50;99789.75;;;-145.95;100.00
37648;BME280;23490;53.656;10.076;2023-02-19T04:26:16;99798.03;;;-145.95;100.00
37648;BME280;23490;53.656;10.076;2023-02-19T04:28:44;99781.50;;;-145.95;100.00
37648;BME280;23490;53.656;10.076;2023-02-19T04:31:10;99818.69;;;-145.95;100.00
37648;BME280;23490;53.656;10.076;2023-02-19T04:33:36;99789.75;;;-145.95;100.00
37648;BME280;23490;53.656;10.076;2023-02-19T04:36:02;99808.34;;;-145.95;100.00
37648;BME280;23490;53.656;10.076;2023-02-19T04:38:27;99789.75;;;-145.95;100.00
37648;BME280;23490;53.656;10.076;2023-02-19T04:40:52;99831.06;;;-145.95;100.00
37648;BME280;23490;53.656;10.076;2023-02-19T04:43:18;99831.06;;;-145.95;100.00
37648;BME280;23490;53.656;10.076;2023-02-19T04:45:43;99798.03;;;-145.95;100.00
37648;BME280;23490;53.656;10.076;2023-02-19T04:48:09;99808.34;;;-145.95;100.00
37648;BME280;23490;53.656;10.076;2023-02-19T04:50:37;99831.06;;;-145.95;100.00
37648;BME280;23490;53.656;10.076;2023-02-19T04:53:03;99839.34;;;-145.95;100.00
37648;BME280;23490;53.656;10.076;2023-02-19T04:55:29;99810.41;;;-145.95;100.00
37648;BME280;23490;53.656;10.076;2023-02-19T04:57:54;99798.03;;;-145.95;100.00
37648;BME280;23490;53.656;10.076;2023-02-19T05:00:20;99802.16;;;-145.95;100.00
37648;BME280;23490;53.656;10.076;2023-02-19T05:02:45;99802.16;;;-145.95;100.00
37648;BME280;23490;53.656;10.076;2023-02-19T05:05:10;99855.84;;;-145.95;100.00
37648;BME280;23490;53.656;10.076;2023-02-19T05:07:35;99802.16;;;-145.95;100.00
37648;BME280;23490;53.656;10.076;2023-02-19T05:10:01;99802.16;;;-145.95;100.00
37648;BME280;23490;53.656;10.076;2023-02-19T05:12:28;99789.75;;;-145.95;100.00
37648;BME280;23490;53.656;10.076;2023-02-19T05:14:53;99841.41;;;-145.95;100.00
37648;BME280;23490;53.656;10.076;2023-02-19T05:17:19;99810.41;;;-145.95;100.00
37648;BME280;23490;53.656;10.076;2023-02-19T05:19:44;99839.34;;;-145.95;100.00
37648;BME280;23490;53.656;10.076;2023-02-19T05:22:09;99818.69;;;-145.95;100.00
37648;BME280;23490;53.656;10.076;2023-02-19T05:24:35;99806.28;;;-145.95;100.00
37648;BME280;23490;53.656;10.076;2023-02-19T05:27:00;99843.47;;;-145.95;100.00
37648;BME280;23490;53.656;10.076;2023-02-19T05:29:25;99793.91;;;-145.95;100.00
37648;BME280;23490;53.656;10.076;2023-02-19T05:31:51;99835.19;;;-145.95;100.00
37648;BME280;23490;53.656;10.076;2023-02-19T05:34:16;99814.56;;;-145.95;100.00
37648;BME280;23490;53.656;10.076;2023-02-19T05:36:41;99829.00;;;-145.95;100.00
37648;BME280;23490;53.656;10.076;2023-02-19T05:39:07;99839.34;;;-145.95;100.00
37648;BME280;23490;53.656;10.076;2023-02-19T05:41:33;99806.28;;;-145.95;100.00
37648;BME280;23490;53.656;10.076;2023-02-19T05:43:58;99781.50;;;-145.95;100.00
37648;BME280;23490;53.656;10.076;2023-02-19T05:46:26;99826.94;;;-145.95;100.00
37648;BME280;23490;53.656;10.076;2023-02-19T05:48:52;99804.22;;;-145.95;100.00
37648;BME280;23490;53.656;10.076;2023-02-19T05:51:20;99839.34;;;-145.95;100.00
37648;BME280;23490;53.656;10.076;2023-02-19T05:53:46;99818.69;;;-145.95;100.00
37648;BME280;23490;53.656;10.076;2023-02-19T05:56:26;99839.34;;;-145.95;100.00
37648;BME280;23490;53.656;10.076;2023-02-19T05:58:53;99833.13;;;-145.95;100.00
37648;BME280;23490;53.656;10.076;2023-02-19T06:01:21;99888.91;;;-145.95;100.00
37648;BME280;23490;53.656;10.076;2023-02-19T06:03:47;99851.72;;;-145.95;100.00
37648;BME280;23490;53.656;10.076;2023-02-19T06:06:13;99888.91;;;-145.95;100.00
37648;BME280;23490;53.656;10.076;2023-02-19T06:08:39;99831.06;;;-145.95;100.00
37648;BME280;23490;53.656;10.076;2023-02-19T06:11:04;99895.09;;;-145.95;100.00
37648;BME280;23490;53.656;10.076;2023-02-19T06:13:30;99876.50;;;-145.95;100.00
37648;BME280;23490;53.656;10.076;2023-02-19T06:15:55;99851.72;;;-145.95;100.00
37648;BME280;23490;53.656;10.076;2023-02-19T06:18:21;99876.50;;;-145.95;100.00
37648;BME280;23490;53.656;10.076;2023-02-19T06:20:46;99847.59;;;-145.95;100.00
37648;BME280;23490;53.656;10.076;2023-02-19T06:23:12;99884.78;;;-145.95;100.00
37648;BME280;23490;53.656;10.076;2023-02-19T06:25:37;99857.94;;;-145.95;100.00
37648;BME280;23490;53.656;10.076;2023-02-19T06:28:02;99835.19;;;-145.95;100.00
37648;BME280;23490;53.656;10.076;2023-02-19T06:30:29;99826.94;;;-145.95;100.00
37648;BME280;23490;53.656;10.076;2023-02-19T06:32:54;99880.66;;;-145.95;100.00
37648;BME280;23490;53.656;10.076;2023-02-19T06:35:20;99833.13;;;-145.95;100.00
37648;BME280;23490;53.656;10.076;2023-02-19T06:37:46;99822.81;;;-145.95;100.00
37648;BME280;23490;53.656;10.076;2023-02-19T06:40:12;99855.84;;;-145.95;100.00
37648;BME280;23490;53.656;10.076;2023-02-19T06:42:37;99843.47;;;-145.95;100.00
37648;BME280;23490;53.656;10.076;2023-02-19T06:45:03;99884.78;;;-145.95;100.00
37648;BME280;23490;53.656;10.076;2023-02-19T06:47:31;99810.41;;;-145.95;100.00
37648;BME280;23490;53.656;10.076;2023-02-19T06:49:58;99878.56;;;-145.95;100.00
37648;BME280;23490;53.656;10.076;2023-02-19T06:52:23;99847.59;;;-145.95;100.00
37648;BME280;23490;53.656;10.076;2023-02-19T06:54:48;99864.13;;;-145.95;100.00
37648;BME280;23490;53.656;10.076;2023-02-19T06:57:14;99793.91;;;-145.95;100.00
37648;BME280;23490;53.656;10.076;2023-02-19T06:59:39;99829.00;;;-145.95;100.00
37648;BME280;23490;53.656;10.076;2023-02-19T07:02:04;99864.13;;;-145.95;100.00
37648;BME280;23490;53.656;10.076;2023-02-19T07:04:30;99866.19;;;-145.95;100.00
37648;BME280;23490;53.656;10.076;2023-02-19T07:06:55;99818.69;;;-145.95;100.00
37648;BME280;23490;53.656;10.076;2023-02-19T07:09:21;99890.97;;;-145.95;100.00
37648;BME280;23490;53.656;10.076;2023-02-19T07:11:47;99843.47;;;-145.95;100.00
37648;BME280;23490;53.656;10.076;2023-02-19T07:14:14;99860.00;;;-145.95;100.00
37648;BME280;23490;53.656;10.076;2023-02-19T07:16:40;99810.41;;;-145.95;100.00
37648;BME280;23490;53.656;10.076;2023-02-19T07:19:05;99864.13;;;-145.95;100.00
37648;BME280;23490;53.656;10.076;2023-02-19T07:21:30;99798.03;;;-145.95;100.00
37648;BME280;23490;53.656;10.076;2023-02-19T07:23:56;99810.41;;;-145.95;100.00
37648;BME280;23490;53.656;10.076;2023-02-19T07:26:22;99864.13;;;-145.95;100.00
37648;BME280;23490;53.656;10.076;2023-02-19T07:28:49;99806.28;;;-145.95;100.00
37648;BME280;23490;53.656;10.076;2023-02-19T07:31:17;99824.88;;;-145.95;100.00
37648;BME280;23490;53.656;10.076;2023-02-19T07:33:44;99860.00;;;-145.95;100.00
37648;BME280;23490;53.656;10.076;2023-02-19T07:36:10;99810.41;;;-145.95;100.00
37648;BME280;23490;53.656;10.076;2023-02-19T07:38:36;99793.91;;;-145.95;100.00
37648;BME280;23490;53.656;10.076;2023-02-19T07:41:03;99818.69;;;-145.95;100.00
37648;BME280;23490;53.656;10.076;2023-02-19T07:43:31;99781.50;;;-145.95;100.00
37648;BME280;23490;53.656;10.076;2023-02-19T07:45:57;99802.16;;;-145.95;100.00
37648;BME280;23490;53.656;10.076;2023-02-19T07:48:22;99775.31;;;-145.95;100.00
37648;BME280;23490;53.656;10.076;2023-02-19T07:50:52;99764.97;;;-145.95;100.00
37648;BME280;23490;53.656;10.076;2023-02-19T07:53:18;99779.44;;;-145.95;100.00
37648;BME280;23490;53.656;10.076;2023-02-19T07:55:43;99820.75;;;-145.95;100.00
37648;BME280;23490;53.656;10.076;2023-02-19T07:58:08;99795.97;;;-145.95;100.00
37648;BME280;23490;53.656;10.076;2023-02-19T08:00:34;99798.03;;;-145.95;100.00
37648;BME280;23490;53.656;10.076;2023-02-19T08:02:59;99822.81;;;-145.95;100.00
37648;BME280;23490;53.656;10.076;2023-02-19T08:05:29;99810.41;;;-145.95;100.00
37648;BME280;23490;53.656;10.076;2023-02-19T08:07:55;99781.50;;;-145.95;100.00
37648;BME280;23490;53.656;10.076;2023-02-19T08:10:21;99851.72;;;-145.95;100.00
37648;BME280;23490;53.656;10.076;2023-02-19T08:13:06;99820.75;;;-145.95;100.00
37648;BME280;23490;53.656;10.076;2023-02-19T08:15:53;99781.50;;;-145.95;100.00
37648;BME280;23490;53.656;10.076;2023-02-19T08:18:25;99818.69;;;-145.95;100.00
37648;BME280;23490;53.656;10.076;2023-02-19T08:20:51;99798.03;;;-145.95;100.00
37648;BME280;23490;53.656;10.076;2023-02-19T08:23:16;99764.97;;;-145.95;100.00
37648;BME280;23490;53.656;10.076;2023-02-19T08:25:42;99800.09;;;-145.95;100.00
37648;BME280;23490;53.656;10.076;2023-02-19T08:28:10;99787.69;;;-145.95;100.00
37648;BME280;23490;53.656;10.076;2023-02-19T08:30:37;99760.84;;;-145.95;100.00
37648;BME280;23490;53.656;10.076;2023-02-19T08:33:04;99798.03;;;-145.95;100.00
37648;BME280;23490;53.656;10.076;2023-02-19T08:35:31;99756.72;;;-145.95;100.00
37648;BME280;23490;53.656;10.076;2023-02-19T08:37:59;99760.84;;;-145.95;100.00
37648;BME280;23490;53.656;10.076;2023-02-19T08:40:25;99750.53;;;-145.95;100.00
37648;BME280;23490;53.656;10.076;2023-02-19T08:42:51;99760.84;;;-145.95;100.00
37648;BME280;23490;53.656;10.076;2023-02-19T08:45:17;99729.88;;;-145.95;100.00
37648;BME280;23490;53.656;10.076;2023-02-19T08:47:42;99742.25;;;-145.95;100.00
37648;BME280;23490;53.656;10.076;2023-02-19T08:50:08;99700.94;;;-145.95;100.00
37648;BME280;23490;53.656;10.076;2023-02-19T08:52:34;99688.56;;;-145.95;100.00
37648;BME280;23490;53.656;10.076;2023-02-19T08:55:00;99669.97;;;-145.95;100.00
37648;BME280;23490;53.656;10.076;2023-02-19T08:57:26;99636.94;;;-145.95;100.00
37648;BME280;23490;53.656;10.076;2023-02-19T08:59:54;99686.50;;;-145.95;100.00
37648;BME280;23490;53.656;10.076;2023-02-19T09:02:20;99661.72;;;-145.95;100.00
37648;BME280;23490;53.656;10.076;2023-02-19T09:04:45;99618.34;;;-145.95;100.00
37648;BME280;23490;53.656;10.076;2023-02-19T09:07:11;99597.69;;;-145.95;100.00
37648;BME280;23490;53.656;10.076;2023-02-19T09:09:36;99616.28;;;-145.95;100.00
37648;BME280;23490;53.656;10.076;2023-02-19T09:12:10;99562.56;;;-145.95;100.00
37648;BME280;23490;53.656;10.076;2023-02-19T09:14:36;99579.09;;;-145.95;100.00
37648;BME280;23490;53.656;10.076;2023-02-19T09:17:04;99564.63;;;-145.95;100.00
37648;BME280;23490;53.656;10.076;2023-02-19T09:19:30;99541.91;;;-145.95;100.00
37648;BME280;23490;53.656;10.076;2023-02-19T09:21:55;99533.66;;;-145.95;100.00
37648;BME280;23490;53.656;10.076;2023-02-19T09:24:21;99550.19;;;-145.95;100.00
37648;BME280;23490;53.656;10.076;2023-02-19T09:26:53;99541.91;;;-145.95;98.92
37648;BME280;23490;53.656;10.076;2023-02-19T09:29:20;99502.69;;;-145.95;99.54
37648;BME280;23490;53.656;10.076;2023-02-19T09:31:46;99535.72;;;-145.95;99.68
37648;BME280;23490;53.656;10.076;2023-02-19T09:34:11;99541.91;;;-145.95;99.79
37648;BME280;23490;53.656;10.076;2023-02-19T09:36:37;99471.69;;;-145.95;96.89
37648;BME280;23490;53.656;10.076;2023-02-19T09:39:04;99471.69;;;-145.95;94.68
37648;BME280;23490;53.656;10.076;2023-02-19T09:41:43;99550.19;;;-145.95;95.06
37648;BME280;23490;53.656;10.076;2023-02-19T09:44:12;99504.75;;;-145.95;95.31
37648;BME280;23490;53.656;10.076;2023-02-19T09:46:47;99484.09;;;-145.95;95.54
37648;BME280;23490;53.656;10.076;2023-02-19T09:49:23;99508.88;;;-145.95;94.38
37648;BME280;23490;53.656;10.076;2023-02-19T09:51:54;99488.22;;;-145.95;95.81
37648;BME280;23490;53.656;10.076;2023-02-19T09:54:26;99434.53;;;-145.95;93.08
37648;BME280;23490;53.656;10.076;2023-02-19T09:56:54;99471.69;;;-145.95;90.84
37648;BME280;23490;53.656;10.076;2023-02-19T09:59:23;99372.56;;;-145.95;91.90
37648;BME280;23490;53.656;10.076;2023-02-19T10:01:55;99310.63;;;-145.95;89.36
37648;BME280;23490;53.656;10.076;2023-02-19T10:04:22;99302.34;;;-145.95;85.28
37648;BME280;23490;53.656;10.076;2023-02-19T10:06:48;99327.13;;;-145.95;83.24
37648;BME280;23490;53.656;10.076;2023-02-19T10:09:23;99265.19;;;-145.95;79.81
37648;BME280;23490;53.656;10.076;2023-02-19T10:11:52;99244.53;;;-145.95;78.34
37648;BME280;23490;53.656;10.076;2023-02-19T10:16:51;99310.63;;;-145.95;77.26
37648;BME280;23490;53.656;10.076;2023-02-19T10:19:16;99205.28;;;-145.95;73.15
37648;BME280;23490;53.656;10.076;2023-02-19T10:21:42;99215.63;;;-145.95;77.97
37648;BME280;23490;53.656;10.076;2023-02-19T10:24:15;99228.00;;;-145.95;76.59
37648;BME280;23490;53.656;10.076;2023-02-19T10:26:44;99194.97;;;-145.95;76.51
37648;BME280;23490;53.656;10.076;2023-02-19T10:29:10;99104.09;;;-145.95;69.44
37648;BME280;23490;53.656;10.076;2023-02-19T10:31:35;99120.63;;;-145.95;70.61
37648;BME280;23490;53.656;10.076;2023-02-19T10:34:01;99062.81;;;-145.95;66.60
37648;BME280;23490;53.656;10.076;2023-02-19T10:36:40;99007.06;;;-145.95;63.41
37648;BME280;23490;53.656;10.076;2023-02-19T10:41:48;99062.81;;;-145.95;66.50
37648;BME280;23490;53.656;10.076;2023-02-19T10:44:19;99040.09;;;-145.95;62.78
37648;BME280;23490;53.656;10.076;2023-02-19T10:46:48;99137.16;;;-145.95;66.00
37648;BME280;23490;53.656;10.076;2023-02-19T10:49:35;99139.22;;;-145.95;64.28
37648;BME280;23490;53.656;10.076;2023-02-19T10:52:18;98980.22;;;-145.95;61.43
37648;BME280;23490;53.656;10.076;2023-02-19T10:54:45;98945.09;;;-145.95;60.88
37648;BME280;23490;53.656;10.076;2023-02-19T10:59:55;99112.38;;;-145.95;65.03
37648;BME280;23490;53.656;10.076;2023-02-19T11:02:25;98856.31;;;-145.95;57.38
37648;BME280;23490;53.656;10.076;2023-02-19T11:07:34;98982.28;;;-145.95;62.01
37648;BME280;23490;53.656;10.076;2023-02-19T11:10:02;98901.75;;;-145.95;59.50
37648;BME280;23490;53.656;10.076;2023-02-19T11:12:30;98860.44;;;-145.95;59.82
37648;BME280;23490;53.656;10.076;2023-02-19T11:15:01;98761.34;;;-145.95;56.73
37648;BME280;23490;53.656;10.076;2023-02-19T11:17:36;98660.16;;;-145.95;54.86
37648;BME280;23490;53.656;10.076;2023-02-19T11:20:06;98736.56;;;-145.95;55.25
37648;BME280;23490;53.656;10.076;2023-02-19T11:22:39;98713.84;;;-145.95;55.57
37648;BME280;23490;53.656;10.076;2023-02-19T11:27:34;98629.19;;;-145.95;53.04
37648;BME280;23490;53.656;10.076;2023-02-19T11:32:46;98627.13;;;-145.95;52.74
37648;BME280;23490;53.656;10.076;2023-02-19T11:35:18;98682.88;;;-145.95;54.97
37648;BME280;23490;53.656;10.076;2023-02-19T11:38:00;98542.47;;;-145.95;50.78
37648;BME280;23490;53.656;10.076;2023-02-19T11:40:36;98674.59;;;-145.95;55.22
37648;BME280;23490;53.656;10.076;2023-02-19T11:43:19;98534.22;;;-145.95;50.62
37648;BME280;23490;53.656;10.076;2023-02-19T11:46:05;98556.91;;;-145.95;50.64
37648;BME280;23490;53.656;10.076;2023-02-19T11:54:46;98631.25;;;-145.95;54.03
37648;BME280;23490;53.656;10.076;2023-02-19T11:57:39;98499.09;;;-145.95;49.60
37648;BME280;23490;53.656;10.076;2023-02-19T12:00:20;98468.13;;;-145.95;45.39
37648;BME280;23490;53.656;10.076;2023-02-19T12:11:34;98660.16;;;-145.95;48.33
37648;BME280;23490;53.656;10.076;2023-02-19T12:14:25;98876.97;;;-145.95;51.55
37648;BME280;23490;53.656;10.076;2023-02-19T12:17:01;98841.84;;;-145.95;50.79
37648;BME280;23490;53.656;10.076;2023-02-19T12:19:43;98815.03;;;-145.95;51.84
37648;BME280;23490;53.656;10.076;2023-02-19T12:22:31;98761.34;;;-145.95;51.40
37648;BME280;23490;53.656;10.076;2023-02-19T12:30:42;98709.72;;;-145.95;49.48
37648;BME280;23490;53.656;10.076;2023-02-19T12:33:38;98753.06;;;-145.95;49.19
37648;BME280;23490;53.656;10.076;2023-02-19T12:36:22;98757.19;;;-145.95;48.76
37648;BME280;23490;53.656;10.076;2023-02-19T12:39:14;98901.75;;;-145.95;50.43
37648;BME280;23490;53.656;10.076;2023-02-19T12:44:36;98786.09;;;-145.95;53.29
37648;BME280;23490;53.656;10.076;2023-02-19T12:47:04;98781.97;;;-145.95;50.46
37648;BME280;23490;53.656;10.076;2023-02-19T12:49:44;98651.91;;;-145.95;50.79
37648;BME280;23490;53.656;10.076;2023-02-19T12:52:20;98521.81;;;-145.95;51.32
37648;BME280;23490;53.656;10.076;2023-02-19T12:54:52;98488.78;;;-145.95;50.04
37648;BME280;23490;53.656;10.076;2023-02-19T12:57:24;98523.88;;;-145.95;48.80
37648;BME280;23490;53.656;10.076;2023-02-19T13:00:01;98497.03;;;-145.95;47.88
37648;BME280;23490;53.656;10.076;2023-02-19T13:02:41;98612.66;;;-145.95;46.68
37648;BME280;23490;53.656;10.076;2023-02-19T13:05:18;98703.53;;;-145.95;48.30
37648;BME280;23490;53.656;10.076;2023-02-19T13:08:05;98918.25;;;-145.95;50.94
37648;BME280;23490;53.656;10.076;2023-02-19T13:10:43;98922.41;;;-145.95;53.90
37648;BME280;23490;53.656;10.076;2023-02-19T13:13:14;98866.63;;;-145.95;52.87
37648;BME280;23490;53.656;10.076;2023-02-19T13:15:49;98827.41;;;-145.95;51.99
37648;BME280;23490;53.656;10.076;2023-02-19T13:18:23;98827.41;;;-145.95;52.62
37648;BME280;23490;53.656;10.076;2023-02-19T13:20:51;98858.38;;;-145.95;52.84
37648;BME280;23490;53.656;10.076;2023-02-19T13:23:30;98831.53;;;-145.95;51.75
37648;BME280;23490;53.656;10.076;2023-02-19T13:38:00;99054.56;;;-145.95;53.13
37648;BME280;23490;53.656;10.076;2023-02-19T13:42:56;99054.56;;;-145.95;52.11
37648;BME280;23490;53.656;10.076;2023-02-19T13:45:32;99066.94;;;-145.95;51.19
37648;BME280;23490;53.656;10.076;2023-02-19T13:48:01;99095.84;;;-145.95;52.28
37648;BME280;23490;53.656;10.076;2023-02-19T13:50:32;99058.69;;;-145.95;53.75
37648;BME280;23490;53.656;10.076;2023-02-19T13:52:59;99029.78;;;-145.95;54.62
37648;BME280;23490;53.656;10.076;2023-02-19T14:00:59;99031.84;;;-145.95;56.05
37648;BME280;23490;53.656;10.076;2023-02-19T14:03:38;99081.41;;;-145.95;56.56
37648;BME280;23490;53.656;10.076;2023-02-19T14:06:06;99087.59;;;-145.95;56.81
37648;BME280;23490;53.656;10.076;2023-02-19T14:11:18;99075.19;;;-145.95;57.10